sensor_id;sensor_type;location;lat;lon;timestamp;pressure;altitude;pressure_sealevel;temperature;humidity
19827;BME280;10074;52.018;4.726;2024-03-02T00:04:03;46269.38;;;-144.79;100.00
19827;BME280;10074;52.018;4.726;2024-03-02T00:09:04;46267.38;;;-144.79;100.00
19827;BME280;10074;52.018;4.726;2024-03-02T00:14:04;46267.38;;;-144.79;100.00
19827;BME280;10074;52.018;4.726;2024-03-02T00:19:05;46275.41;;;-144.79;100.00
19827;BME280;10074;52.018;4.726;2024-03-02T00:24:34;46271.38;;;-144.79;100.00
19827;BME280;10074;52.018;4.726;2024-03-02T00:29:35;46269.38;;;-144.79;100.00
19827;BME280;10074;52.018;4.726;2024-03-02T00:34:35;46269.38;;;-144.79;100.00
19827;BME280;10074;52.018;4.726;2024-03-02T00:39:36;46267.38;;;-144.79;100.00
19827;BME280;10074;52.018;4.726;2024-03-02T00:44:36;46279.41;;;-144.79;100.00
19827;BME280;10074;52.018;4.726;2024-03-02T00:49:37;46279.41;;;-144.79;100.00
19827;BME280;10074;52.018;4.726;2024-03-02T00:54:37;46269.38;;;-144.79;100.00
19827;BME280;10074;52.018;4.726;2024-03-02T00:59:38;46275.41;;;-144.79;100.00
19827;BME280;10074;52.018;4.726;2024-03-02T01:04:38;46273.38;;;-144.79;100.00
19827;BME280;10074;52.018;4.726;2024-03-02T01:09:38;46271.38;;;-144.79;100.00
19827;BME280;10074;52.018;4.726;2024-03-02T01:14:38;46271.38;;;-144.79;100.00
19827;BME280;10074;52.018;4.726;2024-03-02T01:19:41;46269.38;;;-144.79;100.00
19827;BME280;10074;52.018;4.726;2024-03-02T01:24:42;46275.41;;;-144.79;100.00
19827;BME280;10074;52.018;4.726;2024-03-02T01:29:42;46263.38;;;-144.79;100.00
19827;BME280;10074;52.018;4.726;2024-03-02T01:34:42;46275.41;;;-144.79;100.00
19827;BME280;10074;52.018;4.726;2024-03-02T01:39:43;46271.38;;;-144.79;100.00
19827;BME280;10074;52.018;4.726;2024-03-02T01:44:43;46275.41;;;-144.79;100.00
19827;BME280;10074;52.018;4.726;2024-03-02T01:49:43;46267.38;;;-144.79;100.00
19827;BME280;10074;52.018;4.726;2024-03-02T01:54:44;46271.38;;;-144.79;100.00
19827;BME280;10074;52.018;4.726;2024-03-02T01:59:44;46271.38;;;-144.79;100.00
19827;BME280;10074;52.018;4.726;2024-03-02T02:04:45;46271.38;;;-144.79;100.00
19827;BME280;10074;52.018;4.726;2024-03-02T02:09:45;46267.38;;;-144.79;100.00
19827;BME280;10074;52.018;4.726;2024-03-02T02:14:49;46267.38;;;-144.79;100.00
19827;BME280;10074;52.018;4.726;2024-03-02T02:19:50;46267.38;;;-144.79;100.00
19827;BME280;10074;52.018;4.726;2024-03-02T02:24:50;46275.41;;;-144.79;100.00
19827;BME280;10074;52.018;4.726;2024-03-02T02:29:50;46263.38;;;-144.79;100.00
19827;BME280;10074;52.018;4.726;2024-03-02T02:34:54;46265.38;;;-144.79;100.00
19827;BME280;10074;52.018;4.726;2024-03-02T02:39:54;46269.38;;;-144.79;100.00
19827;BME280;10074;52.018;4.726;2024-03-02T02:44:54;46265.38;;;-144.79;100.00
19827;BME280;10074;52.018;4.726;2024-03-02T02:49:55;46267.38;;;-144.79;100.00
19827;BME280;10074;52.018;4.726;2024-03-02T02:54:55;46269.38;;;-144.79;100.00
19827;BME280;10074;52.018;4.726;2024-03-02T02:59:55;46269.38;;;-144.79;100.00
19827;BME280;10074;52.018;4.726;2024-03-02T03:04:55;46267.38;;;-144.79;100.00
19827;BME280;10074;52.018;4.726;2024-03-02T03:09:57;46269.38;;;-144.79;100.00
19827;BME280;10074;52.018;4.726;2024-03-02T03:14:57;46267.38;;;-144.79;100.00
19827;BME280;10074;52.018;4.726;2024-03-02T03:19:58;46281.41;;;-144.79;100.00
19827;BME280;10074;52.018;4.726;2024-03-02T03:24:58;46267.38;;;-144.79;100.00
19827;BME280;10074;52.018;4.726;2024-03-02T03:29:58;46273.38;;;-144.79;100.00
19827;BME280;10074;52.018;4.726;2024-03-02T03:34:58;46265.38;;;-144.79;100.00
19827;BME280;10074;52.018;4.726;2024-03-02T03:39:59;46277.41;;;-144.79;100.00
19827;BME280;10074;52.018;4.726;2024-03-02T03:45:01;46267.38;;;-144.79;100.00
19827;BME280;10074;52.018;4.726;2024-03-02T03:50:01;46269.38;;;-144.79;100.00
19827;BME280;10074;52.018;4.726;2024-03-02T03:55:03;46275.41;;;-144.79;100.00
19827;BME280;10074;52.018;4.726;2024-03-02T04:00:05;46265.38;;;-144.79;100.00
19827;BME280;10074;52.018;4.726;2024-03-02T04:05:07;46267.38;;;-144.79;100.00
19827;BME280;10074;52.018;4.726;2024-03-02T04:10:10;46265.38;;;-144.79;100.00
19827;BME280;10074;52.018;4.726;2024-03-02T04:15:10;46273.38;;;-144.79;100.00
19827;BME280;10074;52.018;4.726;2024-03-02T04:20:11;46267.38;;;-144.79;100.00
19827;BME280;10074;52.018;4.726;2024-03-02T04:25:12;46273.38;;;-144.79;100.00
19827;BME280;10074;52.018;4.726;2024-03-02T04:30:13;46267.38;;;-144.79;100.00
19827;BME280;10074;52.018;4.726;2024-03-02T04:35:13;46263.38;;;-144.79;100.00
19827;BME280;10074;52.018;4.726;2024-03-02T04:40:13;46275.41;;;-144.79;100.00
19827;BME280;10074;52.018;4.726;2024-03-02T04:45:14;46267.38;;;-144.79;100.00
19827;BME280;10074;52.018;4.726;2024-03-02T04:50:14;46271.38;;;-144.79;100.00
19827;BME280;10074;52.018;4.726;2024-03-02T04:55:14;46271.38;;;-144.79;100.00
19827;BME280;10074;52.018;4.726;2024-03-02T05:00:27;46271.38;;;-144.79;100.00
19827;BME280;10074;52.018;4.726;2024-03-02T05:05:27;46279.41;;;-144.79;100.00
19827;BME280;10074;52.018;4.726;2024-03-02T05:10:27;46271.38;;;-144.79;100.00
19827;BME280;10074;52.018;4.726;2024-03-02T05:15:27;46271.38;;;-144.79;100.00
19827;BME280;10074;52.018;4.726;2024-03-02T05:20:28;46271.38;;;-144.79;100.00
19827;BME280;10074;52.018;4.726;2024-03-02T05:25:28;46271.38;;;-144.79;100.00
19827;BME280;10074;52.018;4.726;2024-03-02T05:30:29;46267.38;;;-144.79;100.00
19827;BME280;10074;52.018;4.726;2024-03-02T05:35:29;46271.38;;;-144.79;100.00
19827;BME280;10074;52.018;4.726;2024-03-02T05:40:29;46273.38;;;-144.79;100.00
19827;BME280;10074;52.018;4.726;2024-03-02T05:45:29;46263.38;;;-144.79;100.00
19827;BME280;10074;52.018;4.726;2024-03-02T05:50:30;46271.38;;;-144.79;100.00
19827;BME280;10074;52.018;4.726;2024-03-02T05:55:30;46271.38;;;-144.79;100.00
19827;BME280;10074;52.018;4.726;2024-03-02T06:00:31;46263.38;;;-144.79;100.00
19827;BME280;10074;52.018;4.726;2024-03-02T06:05:31;46265.38;;;-144.79;100.00
19827;BME280;10074;52.018;4.726;2024-03-02T06:10:32;46267.38;;;-144.79;100.00
19827;BME280;10074;52.018;4.726;2024-03-02T06:15:32;46265.38;;;-144.79;100.00
19827;BME280;10074;52.018;4.726;2024-03-02T06:20:33;46263.38;;;-144.79;100.00
19827;BME280;10074;52.018;4.726;2024-03-02T06:25:33;46255.34;;;-144.79;100.00
19827;BME280;10074;52.018;4.726;2024-03-02T06:30:34;46267.38;;;-144.79;100.00
19827;BME280;10074;52.018;4.726;2024-03-02T06:35:34;46257.34;;;-144.79;100.00
19827;BME280;10074;52.018;4.726;2024-03-02T06:40:35;46259.34;;;-144.79;100.00
19827;BME280;10074;52.018;4.726;2024-03-02T06:45:37;46259.34;;;-144.79;100.00
19827;BME280;10074;52.018;4.726;2024-03-02T06:50:38;46263.38;;;-144.79;100.00
19827;BME280;10074;52.018;4.726;2024-03-02T06:55:38;46255.34;;;-144.79;100.00
19827;BME280;10074;52.018;4.726;2024-03-02T07:00:38;46261.34;;;-144.79;100.00
19827;BME280;10074;52.018;4.726;2024-03-02T07:05:38;46265.38;;;-144.79;100.00
19827;BME280;10074;52.018;4.726;2024-03-02T07:10:39;46255.34;;;-144.79;100.00
19827;BME280;10074;52.018;4.726;2024-03-02T07:15:39;46259.34;;;-144.79;100.00
19827;BME280;10074;52.018;4.726;2024-03-02T07:20:59;46255.34;;;-144.79;100.00
19827;BME280;10074;52.018;4.726;2024-03-02T07:26:01;46251.34;;;-144.79;100.00
19827;BME280;10074;52.018;4.726;2024-03-02T07:31:03;46253.34;;;-144.79;100.00
19827;BME280;10074;52.018;4.726;2024-03-02T07:36:04;46257.34;;;-144.79;100.00
19827;BME280;10074;52.018;4.726;2024-03-02T07:41:05;46257.34;;;-144.79;100.00
19827;BME280;10074;52.018;4.726;2024-03-02T07:46:05;46247.31;;;-144.79;100.00
19827;BME280;10074;52.018;4.726;2024-03-02T07:51:06;46247.31;;;-144.79;100.00
19827;BME280;10074;52.018;4.726;2024-03-02T07:56:06;46257.34;;;-144.79;100.00
19827;BME280;10074;52.018;4.726;2024-03-02T08:01:07;46255.34;;;-144.79;100.00
19827;BME280;10074;52.018;4.726;2024-03-02T08:06:07;46247.31;;;-144.79;100.00
19827;BME280;10074;52.018;4.726;2024-03-02T08:11:07;46251.34;;;-144.79;100.00
19827;BME280;10074;52.018;4.726;2024-03-02T08:16:08;46243.31;;;-144.79;100.00
19827;BME280;10074;52.018;4.726;2024-03-02T08:21:09;46243.31;;;-144.79;100.00
19827;BME280;10074;52.018;4.726;2024-03-02T08:26:10;46249.34;;;-144.79;100.00
19827;BME280;10074;52.018;4.726;2024-03-02T08:31:11;46251.34;;;-144.79;100.00
19827;BME280;10074;52.018;4.726;2024-03-02T08:36:12;46241.31;;;-144.79;100.00
19827;BME280;10074;52.018;4.726;2024-03-02T08:41:12;46251.34;;;-144.79;100.00
19827;BME280;10074;52.018;4.726;2024-03-02T08:46:13;46249.34;;;-144.79;100.00
19827;BME280;10074;52.018;4.726;2024-03-02T08:51:14;46243.31;;;-144.79;100.00
19827;BME280;10074;52.018;4.726;2024-03-02T08:56:14;46239.31;;;-144.79;100.00
19827;BME280;10074;52.018;4.726;2024-03-02T09:01:17;46251.34;;;-144.79;100.00
19827;BME280;10074;52.018;4.726;2024-03-02T09:06:17;46253.34;;;-144.79;100.00
19827;BME280;10074;52.018;4.726;2024-03-02T09:11:19;46241.31;;;-144.79;100.00
19827;BME280;10074;52.018;4.726;2024-03-02T09:16:19;46243.31;;;-144.79;100.00
19827;BME280;10074;52.018;4.726;2024-03-02T09:21:20;46247.31;;;-144.79;100.00
19827;BME280;10074;52.018;4.726;2024-03-02T09:26:20;46243.31;;;-144.79;100.00
19827;BME280;10074;52.018;4.726;2024-03-02T09:31:20;46233.28;;;-144.79;100.00
19827;BME280;10074;52.018;4.726;2024-03-02T09:36:22;46247.31;;;-144.79;100.00
19827;BME280;10074;52.018;4.726;2024-03-02T09:41:22;46247.31;;;-144.79;100.00
19827;BME280;10074;52.018;4.726;2024-03-02T09:46:23;46239.31;;;-144.79;100.00
19827;BME280;10074;52.018;4.726;2024-03-02T09:51:23;46241.31;;;-144.79;100.00
19827;BME280;10074;52.018;4.726;2024-03-02T09:56:24;46247.31;;;-144.79;100.00
19827;BME280;10074;52.018;4.726;2024-03-02T10:01:24;46247.31;;;-144.79;100.00
19827;BME280;10074;52.018;4.726;2024-03-02T10:06:26;46243.31;;;-144.79;100.00
19827;BME280;10074;52.018;4.726;2024-03-02T10:11:31;46249.34;;;-144.79;100.00
19827;BME280;10074;52.018;4.726;2024-03-02T10:16:33;46235.28;;;-144.79;100.00
19827;BME280;10074;52.018;4.726;2024-03-02T10:21:33;46233.28;;;-144.79;100.00
19827;BME280;10074;52.018;4.726;2024-03-02T10:26:33;46253.34;;;-144.79;100.00
19827;BME280;10074;52.018;4.726;2024-03-02T10:31:34;46229.28;;;-144.79;100.00
19827;BME280;10074;52.018;4.726;2024-03-02T10:36:36;46171.13;;;-144.79;100.00
19827;BME280;10074;52.018;4.726;2024-03-02T10:41:38;46145.06;;;-144.79;100.00
19827;BME280;10074;52.018;4.726;2024-03-02T10:46:38;46163.13;;;-144.79;100.00
19827;BME280;10074;52.018;4.726;2024-03-02T10:51:39;46137.06;;;-144.79;100.00
19827;BME280;10074;52.018;4.726;2024-03-02T10:56:41;46135.03;;;-144.79;100.00
19827;BME280;10074;52.018;4.726;2024-03-02T11:01:42;46125.03;;;-144.79;100.00
19827;BME280;10074;52.018;4.726;2024-03-02T11:06:56;46145.06;;;-144.79;100.00
19827;BME280;10074;52.018;4.726;2024-03-02T11:12:15;46175.16;;;-144.79;100.00
19827;BME280;10074;52.018;4.726;2024-03-02T11:17:19;46185.16;;;-144.79;100.00
19827;BME280;10074;52.018;4.726;2024-03-02T11:22:20;46191.19;;;-144.79;100.00
19827;BME280;10074;52.018;4.726;2024-03-02T11:32:55;46203.22;;;-144.79;100.00
19827;BME280;10074;52.018;4.726;2024-03-02T11:37:55;46225.28;;;-144.79;100.00
19827;BME280;10074;52.018;4.726;2024-03-02T11:43:02;46209.22;;;-144.79;100.00
19827;BME280;10074;52.018;4.726;2024-03-02T11:48:05;46231.28;;;-144.79;100.00
19827;BME280;10074;52.018;4.726;2024-03-02T11:53:07;46225.28;;;-144.79;100.00
19827;BME280;10074;52.018;4.726;2024-03-02T11:58:10;46215.25;;;-144.79;100.00
19827;BME280;10074;52.018;4.726;2024-03-02T12:03:12;46215.25;;;-144.79;100.00
19827;BME280;10074;52.018;4.726;2024-03-02T12:08:13;46211.22;;;-144.79;100.00
19827;BME280;10074;52.018;4.726;2024-03-02T12:13:13;46231.28;;;-144.79;100.00
19827;BME280;10074;52.018;4.726;2024-03-02T12:18:14;46223.25;;;-144.79;100.00
19827;BME280;10074;52.018;4.726;2024-03-02T12:23:14;46223.25;;;-144.79;100.00
19827;BME280;10074;52.018;4.726;2024-03-02T12:28:15;46215.25;;;-144.79;100.00
19827;BME280;10074;52.018;4.726;2024-03-02T12:33:16;46217.25;;;-144.79;100.00
19827;BME280;10074;52.018;4.726;2024-03-02T12:38:16;46215.25;;;-144.79;100.00
19827;BME280;10074;52.018;4.726;2024-03-02T12:43:17;46219.25;;;-144.79;100.00
19827;BME280;10074;52.018;4.726;2024-03-02T12:48:17;46227.28;;;-144.79;100.00
19827;BME280;10074;52.018;4.726;2024-03-02T12:53:17;46215.25;;;-144.79;100.00
19827;BME280;10074;52.018;4.726;2024-03-02T12:58:19;46219.25;;;-144.79;100.00
19827;BME280;10074;52.018;4.726;2024-03-02T13:03:21;46215.25;;;-144.79;100.00
19827;BME280;10074;52.018;4.726;2024-03-02T13:08:22;46239.31;;;-144.79;100.00
19827;BME280;10074;52.018;4.726;2024-03-02T13:13:23;46237.31;;;-144.79;100.00
19827;BME280;10074;52.018;4.726;2024-03-02T13:18:23;46241.31;;;-144.79;100.00
19827;BME280;10074;52.018;4.726;2024-03-02T13:23:23;46239.31;;;-144.79;100.00
19827;BME280;10074;52.018;4.726;2024-03-02T13:28:25;46247.31;;;-144.79;100.00
19827;BME280;10074;52.018;4.726;2024-03-02T13:33:25;46249.34;;;-144.79;100.00
19827;BME280;10074;52.018;4.726;2024-03-02T13:38:25;46237.31;;;-144.79;100.00
19827;BME280;10074;52.018;4.726;2024-03-02T13:43:26;46253.34;;;-144.79;100.00
19827;BME280;10074;52.018;4.726;2024-03-02T13:48:27;46243.31;;;-144.79;100.00
19827;BME280;10074;52.018;4.726;2024-03-02T13:53:27;46245.31;;;-144.79;100.00
19827;BME280;10074;52.018;4.726;2024-03-02T13:58:27;46249.34;;;-144.79;100.00
19827;BME280;10074;52.018;4.726;2024-03-02T14:03:28;46251.34;;;-144.79;100.00
19827;BME280;10074;52.018;4.726;2024-03-02T14:08:28;46247.31;;;-144.79;100.00
19827;BME280;10074;52.018;4.726;2024-03-02T14:13:28;46245.31;;;-144.79;100.00
19827;BME280;10074;52.018;4.726;2024-03-02T14:18:29;46245.31;;;-144.79;100.00
19827;BME280;10074;52.018;4.726;2024-03-02T14:23:29;46257.34;;;-144.79;100.00
19827;BME280;10074;52.018;4.726;2024-03-02T14:28:29;46259.34;;;-144.79;100.00
19827;BME280;10074;52.018;4.726;2024-03-02T14:33:30;46257.34;;;-144.79;100.00
19827;BME280;10074;52.018;4.726;2024-03-02T14:38:30;46261.34;;;-144.79;100.00
19827;BME280;10074;52.018;4.726;2024-03-02T14:43:31;46257.34;;;-144.79;100.00
19827;BME280;10074;52.018;4.726;2024-03-02T14:48:31;46257.34;;;-144.79;100.00
19827;BME280;10074;52.018;4.726;2024-03-02T14:53:31;46259.34;;;-144.79;100.00
19827;BME280;10074;52.018;4.726;2024-03-02T14:58:32;46263.38;;;-144.79;100.00
19827;BME280;10074;52.018;4.726;2024-03-02T15:03:33;46263.38;;;-144.79;100.00
19827;BME280;10074;52.018;4.726;2024-03-02T15:08:33;46263.38;;;-144.79;100.00
19827;BME280;10074;52.018;4.726;2024-03-02T15:13:34;46259.34;;;-144.79;100.00
19827;BME280;10074;52.018;4.726;2024-03-02T15:18:34;46259.34;;;-144.79;100.00
19827;BME280;10074;52.018;4.726;2024-03-02T15:23:35;46263.38;;;-144.79;100.00
19827;BME280;10074;52.018;4.726;2024-03-02T15:28:35;46259.34;;;-144.79;100.00
19827;BME280;10074;52.018;4.726;2024-03-02T15:33:35;46259.34;;;-144.79;100.00
19827;BME280;10074;52.018;4.726;2024-03-02T15:38:35;46263.38;;;-144.79;100.00
19827;BME280;10074;52.018;4.726;2024-03-02T15:43:37;46263.38;;;-144.79;100.00
19827;BME280;10074;52.018;4.726;2024-03-02T15:48:39;46263.38;;;-144.79;100.00
19827;BME280;10074;52.018;4.726;2024-03-02T15:53:39;46263.38;;;-144.79;100.00
19827;BME280;10074;52.018;4.726;2024-03-02T15:58:39;46263.38;;;-144.79;100.00
19827;BME280;10074;52.018;4.726;2024-03-02T16:03:40;46263.38;;;-144.79;100.00
19827;BME280;10074;52.018;4.726;2024-03-02T16:08:40;46273.38;;;-144.79;100.00
19827;BME280;10074;52.018;4.726;2024-03-02T16:13:40;46275.41;;;-144.79;100.00
19827;BME280;10074;52.018;4.726;2024-03-02T16:18:40;46269.38;;;-144.79;100.00
19827;BME280;10074;52.018;4.726;2024-03-02T16:23:41;46269.38;;;-144.79;100.00
19827;BME280;10074;52.018;4.726;2024-03-02T16:28:41;46271.38;;;-144.79;100.00
19827;BME280;10074;52.018;4.726;2024-03-02T16:33:42;46275.41;;;-144.79;100.00
19827;BME280;10074;52.018;4.726;2024-03-02T16:38:42;46275.41;;;-144.79;100.00
19827;BME280;10074;52.018;4.726;2024-03-02T16:43:43;46275.41;;;-144.79;100.00
19827;BME280;10074;52.018;4.726;2024-03-02T16:48:45;46279.41;;;-144.79;100.00
19827;BME280;10074;52.018;4.726;2024-03-02T16:53:46;46275.41;;;-144.79;100.00
19827;BME280;10074;52.018;4.726;2024-03-02T16:58:46;46283.41;;;-144.79;100.00
19827;BME280;10074;52.018;4.726;2024-03-02T17:03:46;46287.44;;;-144.79;100.00
19827;BME280;10074;52.018;4.726;2024-03-02T17:08:46;46277.41;;;-144.79;100.00
19827;BME280;10074;52.018;4.726;2024-03-02T17:13:47;46267.38;;;-144.79;100.00
19827;BME280;10074;52.018;4.726;2024-03-02T17:18:47;46271.38;;;-144.79;100.00
19827;BME280;10074;52.018;4.726;2024-03-02T17:23:47;46267.38;;;-144.79;100.00
19827;BME280;10074;52.018;4.726;2024-03-02T17:28:48;46267.38;;;-144.79;100.00
19827;BME280;10074;52.018;4.726;2024-03-02T17:33:48;46267.38;;;-144.79;100.00
19827;BME280;10074;52.018;4.726;2024-03-02T17:38:48;46271.38;;;-144.79;100.00
19827;BME280;10074;52.018;4.726;2024-03-02T17:43:48;46279.41;;;-144.79;100.00
19827;BME280;10074;52.018;4.726;2024-03-02T17:48:49;46271.38;;;-144.79;100.00
19827;BME280;10074;52.018;4.726;2024-03-02T17:53:49;46265.38;;;-144.79;100.00
19827;BME280;10074;52.018;4.726;2024-03-02T17:58:49;46271.38;;;-144.79;100.00
19827;BME280;10074;52.018;4.726;2024-03-02T18:03:50;46269.38;;;-144.79;100.00
19827;BME280;10074;52.018;4.726;2024-03-02T18:08:50;46267.38;;;-144.79;100.00
19827;BME280;10074;52.018;4.726;2024-03-02T18:13:50;46269.38;;;-144.79;100.00
19827;BME280;10074;52.018;4.726;2024-03-02T18:18:50;46269.38;;;-144.79;100.00
19827;BME280;10074;52.018;4.726;2024-03-02T18:23:51;46269.38;;;-144.79;100.00
19827;BME280;10074;52.018;4.726;2024-03-02T18:28:51;46271.38;;;-144.79;100.00
19827;BME280;10074;52.018;4.726;2024-03-02T18:33:51;46269.38;;;-144.79;100.00
19827;BME280;10074;52.018;4.726;2024-03-02T18:38:51;46273.38;;;-144.79;100.00
19827;BME280;10074;52.018;4.726;2024-03-02T18:43:52;46267.38;;;-144.79;100.00
19827;BME280;10074;52.018;4.726;2024-03-02T18:48:52;46265.38;;;-144.79;100.00
19827;BME280;10074;52.018;4.726;2024-03-02T18:53:52;46265.38;;;-144.79;100.00
19827;BME280;10074;52.018;4.726;2024-03-02T18:58:53;46269.38;;;-144.79;100.00
19827;BME280;10074;52.018;4.726;2024-03-02T19:03:53;46279.41;;;-144.79;100.00
19827;BME280;10074;52.018;4.726;2024-03-02T19:08:53;46265.38;;;-144.79;100.00
19827;BME280;10074;52.018;4.726;2024-03-02T19:13:54;46269.38;;;-144.79;100.00
19827;BME280;10074;52.018;4.726;2024-03-02T19:18:54;46271.38;;;-144.79;100.00
19827;BME280;10074;52.018;4.726;2024-03-02T19:23:54;46283.41;;;-144.79;100.00
19827;BME280;10074;52.018;4.726;2024-03-02T19:28:55;46271.38;;;-144.79;100.00
19827;BME280;10074;52.018;4.726;2024-03-02T19:33:55;46279.41;;;-144.79;100.00
19827;BME280;10074;52.018;4.726;2024-03-02T19:38:56;46271.38;;;-144.79;100.00
19827;BME280;10074;52.018;4.726;2024-03-02T19:43:56;46277.41;;;-144.79;100.00
19827;BME280;10074;52.018;4.726;2024-03-02T19:48:56;46275.41;;;-144.79;100.00
19827;BME280;10074;52.018;4.726;2024-03-02T19:53:57;46269.38;;;-144.79;100.00
19827;BME280;10074;52.018;4.726;2024-03-02T19:58:58;46263.38;;;-144.79;100.00
19827;BME280;10074;52.018;4.726;2024-03-02T20:03:59;46271.38;;;-144.79;100.00
19827;BME280;10074;52.018;4.726;2024-03-02T20:08:59;46267.38;;;-144.79;100.00
19827;BME280;10074;52.018;4.726;2024-03-02T20:13:59;46277.41;;;-144.79;100.00
19827;BME280;10074;52.018;4.726;2024-03-02T20:19:00;46273.38;;;-144.79;100.00
19827;BME280;10074;52.018;4.726;2024-03-02T20:24:00;46277.41;;;-144.79;100.00
19827;BME280;10074;52.018;4.726;2024-03-02T20:29:01;46273.38;;;-144.79;100.00
19827;BME280;10074;52.018;4.726;2024-03-02T20:34:01;46277.41;;;-144.79;100.00
19827;BME280;10074;52.018;4.726;2024-03-02T20:39:02;46277.41;;;-144.79;100.00
19827;BME280;10074;52.018;4.726;2024-03-02T20:44:05;46279.41;;;-144.79;100.00
19827;BME280;10074;52.018;4.726;2024-03-02T20:49:05;46275.41;;;-144.79;100.00
19827;BME280;10074;52.018;4.726;2024-03-02T20:54:06;46273.38;;;-144.79;100.00
19827;BME280;10074;52.018;4.726;2024-03-02T20:59:07;46271.38;;;-144.79;100.00
19827;BME280;10074;52.018;4.726;2024-03-02T21:04:08;46277.41;;;-144.79;100.00
19827;BME280;10074;52.018;4.726;2024-03-02T21:09:13;46285.41;;;-144.79;100.00
19827;BME280;10074;52.018;4.726;2024-03-02T21:14:14;46277.41;;;-144.79;100.00
19827;BME280;10074;52.018;4.726;2024-03-02T21:19:14;46271.38;;;-144.79;100.00
19827;BME280;10074;52.018;4.726;2024-03-02T21:24:14;46283.41;;;-144.79;100.00
19827;BME280;10074;52.018;4.726;2024-03-02T21:29:16;46279.41;;;-144.79;100.00
19827;BME280;10074;52.018;4.726;2024-03-02T21:34:19;46283.41;;;-144.79;100.00
19827;BME280;10074;52.018;4.726;2024-03-02T21:39:20;46281.41;;;-144.79;100.00
19827;BME280;10074;52.018;4.726;2024-03-02T21:44:20;46291.44;;;-144.79;100.00
19827;BME280;10074;52.018;4.726;2024-03-02T21:49:20;46283.41;;;-144.79;100.00
19827;BME280;10074;52.018;4.726;2024-03-02T21:54:20;46285.41;;;-144.79;100.00
19827;BME280;10074;52.018;4.726;2024-03-02T21:59:21;46279.41;;;-144.79;100.00
19827;BME280;10074;52.018;4.726;2024-03-02T22:04:21;46287.44;;;-144.79;100.00
19827;BME280;10074;52.018;4.726;2024-03-02T22:09:21;46287.44;;;-144.79;100.00
19827;BME280;10074;52.018;4.726;2024-03-02T22:14:23;46281.41;;;-144.79;100.00
19827;BME280;10074;52.018;4.726;2024-03-02T22:19:23;46285.41;;;-144.79;100.00
19827;BME280;10074;52.018;4.726;2024-03-02T22:24:23;46287.44;;;-144.79;100.00
19827;BME280;10074;52.018;4.726;2024-03-02T22:29:25;46279.41;;;-144.79;100.00
19827;BME280;10074;52.018;4.726;2024-03-02T22:34:25;46283.41;;;-144.79;100.00
19827;BME280;10074;52.018;4.726;2024-03-02T22:39:25;46275.41;;;-144.79;100.00
19827;BME280;10074;52.018;4.726;2024-03-02T22:44:26;46279.41;;;-144.79;100.00
19827;BME280;10074;52.018;4.726;2024-03-02T22:49:26;46285.41;;;-144.79;100.00
19827;BME280;10074;52.018;4.726;2024-03-02T22:54:26;46287.44;;;-144.79;100.00
19827;BME280;10074;52.018;4.726;2024-03-02T22:59:27;46283.41;;;-144.79;100.00
19827;BME280;10074;52.018;4.726;2024-03-02T23:04:27;46275.41;;;-144.79;100.00
19827;BME280;10074;52.018;4.726;2024-03-02T23:09:27;46283.41;;;-144.79;100.00
19827;BME280;10074;52.018;4.726;2024-03-02T23:14:28;46283.41;;;-144.79;100.00
19827;BME280;10074;52.018;4.726;2024-03-02T23:19:28;46277.41;;;-144.79;100.00
19827;BME280;10074;52.018;4.726;2024-03-02T23:24:28;46283.41;;;-144.79;100.00
19827;BME280;10074;52.018;4.726;2024-03-02T23:29:29;46273.38;;;-144.79;100.00
19827;BME280;10074;52.018;4.726;2024-03-02T23:34:29;46283.41;;;-144.79;100.00
19827;BME280;10074;52.018;4.726;2024-03-02T23:39:29;46279.41;;;-144.79;100.00
19827;BME280;10074;52.018;4.726;2024-03-02T23:44:48;46283.41;;;-144.79;100.00
19827;BME280;10074;52.018;4.726;2024-03-02T23:49:48;46283.41;;;-144.79;100.00
19827;BME280;10074;52.018;4.726;2024-03-02T23:54:49;46285.41;;;-144.79;100.00
19827;BME280;10074;52.018;4.726;2024-03-02T23:59:49;46279.41;;;-144.79;100.00
